Time;durP1;ratioP1;P1;durP2;ratioP2;P2;SDS_P1;SDS_P2;PMS_P1;PMS_P2;Temp;Humidity;BMP_temperature;BMP_pressure;BME280_temperature;BME280_humidity;BME280_pressure;Samples;Min_cycle;Max_cycle;Signal;HPM_P1;HPM_P2
2022/01/11 00:00:22;;;;;;;23.37;15.90;;;2.60;99.90;;;;;;5033925;28;20178;-70
2022/01/11 00:02:50;;;;;;;23.10;15.43;;;2.60;99.90;;;;;;5033757;28;20167;-70
2022/01/11 00:05:27;;;;;;;25.37;16.03;;;2.60;99.90;;;;;;5033689;28;20169;-69
2022/01/11 00:07:55;;;;;;;27.13;15.10;;;2.60;99.90;;;;;;5033577;28;20259;-69
2022/01/11 00:10:32;;;;;;;21.30;15.43;;;2.60;99.90;;;;;;5034014;28;20180;-69
2022/01/11 00:13:00;;;;;;;24.60;15.23;;;2.70;99.90;;;;;;5033620;28;20696;-69
2022/01/11 00:15:26;;;;;;;28.07;16.20;;;2.70;99.90;;;;;;5032889;28;20640;-70
2022/01/11 00:17:52;;;;;;;22.23;14.67;;;2.80;99.90;;;;;;5033616;28;20227;-69
2022/01/11 00:20:20;;;;;;;25.80;15.23;;;2.90;99.90;;;;;;5033679;28;20177;-70
2022/01/11 00:25:32;;;;;;;26.30;14.97;;;2.90;99.90;;;;;;5033288;28;20362;-68
2022/01/11 00:27:58;;;;;;;22.07;15.00;;;2.90;99.90;;;;;;5033216;28;20189;-68
2022/01/11 00:30:30;;;;;;;24.30;14.60;;;2.90;99.90;;;;;;5033189;28;20174;-68
2022/01/11 00:32:58;;;;;;;20.53;14.87;;;2.90;99.90;;;;;;5033428;28;20172;-69
2022/01/11 00:35:28;;;;;;;21.80;14.70;;;3.00;99.90;;;;;;5033177;28;20214;-69
2022/01/11 00:37:54;;;;;;;26.57;15.00;;;3.10;99.90;;;;;;5032902;28;20209;-69
2022/01/11 00:40:20;;;;;;;24.07;14.90;;;3.00;99.90;;;;;;5033233;28;20219;-69
2022/01/11 00:42:46;;;;;;;20.17;14.67;;;3.10;99.90;;;;;;5033064;28;20197;-68
2022/01/11 00:45:13;;;;;;;20.33;14.27;;;3.10;99.90;;;;;;5032974;28;20181;-70
2022/01/11 00:47:39;;;;;;;20.27;14.13;;;3.00;99.90;;;;;;5033122;28;20525;-69
2022/01/11 00:50:07;;;;;;;23.90;14.90;;;3.00;99.90;;;;;;5033067;28;20629;-68
2022/01/11 00:52:33;;;;;;;20.27;13.67;;;2.90;99.90;;;;;;5033327;28;20165;-69
2022/01/11 00:54:59;;;;;;;19.83;14.00;;;2.90;99.90;;;;;;5032939;28;20184;-68
2022/01/11 00:57:25;;;;;;;19.17;13.33;;;2.80;99.90;;;;;;5032713;28;20549;-69
2022/01/11 00:59:51;;;;;;;21.60;13.87;;;2.80;99.90;;;;;;5032893;28;20173;-69
2022/01/11 01:02:18;;;;;;;21.40;13.87;;;2.80;99.90;;;;;;5033077;28;20506;-69
2022/01/11 01:04:43;;;;;;;21.50;13.37;;;2.80;99.90;;;;;;5033027;28;20173;-68
2022/01/11 01:07:09;;;;;;;18.90;12.80;;;2.80;99.90;;;;;;5032849;28;20188;-69
2022/01/11 01:09:45;;;;;;;20.23;13.37;;;2.90;99.90;;;;;;5032996;28;20182;-69
2022/01/11 01:12:11;;;;;;;20.00;13.13;;;2.90;99.90;;;;;;5032703;28;20173;-68
2022/01/11 01:14:37;;;;;;;18.63;13.17;;;2.90;99.90;;;;;;5032753;28;20184;-69
2022/01/11 01:17:03;;;;;;;22.47;13.30;;;2.90;99.90;;;;;;5032603;28;20309;-68
2022/01/11 01:19:29;;;;;;;18.30;12.97;;;3.00;99.90;;;;;;5033111;28;20216;-68
2022/01/11 01:21:55;;;;;;;21.87;12.67;;;3.10;99.90;;;;;;5032729;28;20538;-69
2022/01/11 01:24:22;;;;;;;18.47;13.20;;;3.10;99.90;;;;;;5032481;28;20166;-69
2022/01/11 01:26:48;;;;;;;19.20;12.80;;;3.10;99.90;;;;;;5030978;28;20197;-69
2022/01/11 01:29:14;;;;;;;20.63;13.13;;;3.20;99.90;;;;;;5032976;28;20173;-69
2022/01/11 01:31:40;;;;;;;20.07;13.00;;;3.20;99.90;;;;;;5032363;28;20237;-68
2022/01/11 01:34:06;;;;;;;18.67;13.47;;;3.20;99.90;;;;;;5034092;28;20190;-69
2022/01/11 01:36:32;;;;;;;17.90;12.67;;;3.20;99.90;;;;;;5034951;28;20595;-69
2022/01/11 01:38:58;;;;;;;19.47;13.10;;;3.30;99.90;;;;;;5036498;28;20696;-68
2022/01/11 01:41:24;;;;;;;20.47;13.03;;;3.40;99.90;;;;;;5036146;28;20253;-68
2022/01/11 01:43:54;;;;;;;21.63;13.30;;;3.40;99.90;;;;;;5035110;28;20552;-69
2022/01/11 01:46:22;;;;;;;19.40;12.60;;;3.30;99.90;;;;;;5036261;28;20249;-69
2022/01/11 01:48:48;;;;;;;19.43;12.40;;;3.30;99.90;;;;;;5036570;28;20170;-69
2022/01/11 01:51:14;;;;;;;21.40;13.07;;;3.30;99.90;;;;;;5036087;28;20269;-68
2022/01/11 01:53:44;;;;;;;20.70;12.97;;;3.30;99.90;;;;;;5036159;28;20280;-69
2022/01/11 01:56:10;;;;;;;23.77;13.87;;;3.30;99.90;;;;;;5035489;28;20181;-69
2022/01/11 01:58:37;;;;;;;20.63;13.97;;;3.30;99.90;;;;;;5036256;28;20269;-69
2022/01/11 02:01:04;;;;;;;23.40;13.63;;;3.20;99.90;;;;;;5036420;28;20361;-69
2022/01/11 02:03:37;;;;;;;22.27;14.00;;;3.20;99.90;;;;;;5035907;28;20231;-68
2022/01/11 02:06:05;;;;;;;21.07;13.67;;;3.20;99.90;;;;;;5035928;28;20178;-69
2022/01/11 02:08:31;;;;;;;20.00;13.77;;;3.30;99.90;;;;;;5035973;28;20277;-70
2022/01/11 02:10:57;;;;;;;20.80;13.97;;;3.30;99.90;;;;;;5035719;28;20638;-69
2022/01/11 02:13:23;;;;;;;20.87;14.43;;;3.30;99.90;;;;;;5036117;28;20661;-69
2022/01/11 02:15:50;;;;;;;21.77;13.97;;;3.40;99.90;;;;;;5035789;28;20178;-69
2022/01/11 02:18:23;;;;;;;23.80;14.73;;;3.40;99.90;;;;;;5035773;28;20213;-69
2022/01/11 02:20:50;;;;;;;22.20;14.07;;;3.30;99.90;;;;;;5035931;28;20171;-69
2022/01/11 02:23:17;;;;;;;21.90;13.87;;;3.30;99.90;;;;;;5035588;28;20626;-69
2022/01/11 02:25:44;;;;;;;20.43;13.13;;;3.10;99.90;;;;;;5034901;28;20214;-68
2022/01/11 02:28:12;;;;;;;21.57;13.90;;;3.10;99.90;;;;;;5035662;28;20256;-69
2022/01/11 02:30:38;;;;;;;20.17;13.53;;;3.20;99.90;;;;;;5035614;28;20158;-69
2022/01/11 02:33:07;;;;;;;20.43;13.13;;;3.20;99.90;;;;;;5035587;28;20659;-68
2022/01/11 02:35:33;;;;;;;20.23;14.70;;;3.10;99.90;;;;;;5035456;28;20496;-68
2022/01/11 02:37:59;;;;;;;22.87;13.33;;;3.10;99.90;;;;;;5035100;28;20220;-68
2022/01/11 02:40:25;;;;;;;19.93;13.33;;;3.10;99.90;;;;;;5035066;28;20201;-68
2022/01/11 02:42:50;;;;;;;22.17;13.73;;;3.10;99.90;;;;;;5035516;28;20178;-68
2022/01/11 02:45:18;;;;;;;20.33;13.73;;;3.00;99.90;;;;;;5033992;28;20553;-69
2022/01/11 02:47:46;;;;;;;21.80;12.90;;;3.10;99.90;;;;;;5035283;28;20178;-69
2022/01/11 02:50:14;;;;;;;20.20;13.30;;;3.10;99.90;;;;;;5035361;28;20169;-69
2022/01/11 02:52:39;;;;;;;24.67;14.47;;;3.10;99.90;;;;;;5035041;28;20178;-69
2022/01/11 02:55:13;;;;;;;18.73;13.13;;;3.20;99.90;;;;;;5034053;28;20205;-69
2022/01/11 02:57:40;;;;;;;20.07;13.23;;;3.30;99.90;;;;;;5034904;28;20205;-69
2022/01/11 03:00:09;;;;;;;19.93;12.47;;;3.30;99.90;;;;;;5033894;28;20208;-68
2022/01/11 03:02:34;;;;;;;21.00;13.63;;;3.30;99.90;;;;;;5035071;28;20182;-69
2022/01/11 03:05:00;;;;;;;21.60;13.70;;;3.30;99.90;;;;;;5035090;28;20250;-68
2022/01/11 03:07:26;;;;;;;19.13;13.13;;;3.30;99.90;;;;;;5034410;28;20169;-68
2022/01/11 03:10:07;;;;;;;19.93;13.57;;;3.30;99.90;;;;;;5034554;28;20304;-69
2022/01/11 03:12:32;;;;;;;18.23;12.90;;;3.30;99.90;;;;;;5034738;28;20170;-68
2022/01/11 03:14:58;;;;;;;18.33;12.73;;;3.30;99.90;;;;;;5034791;28;20268;-69
2022/01/11 03:17:25;;;;;;;26.60;14.50;;;3.30;99.90;;;;;;5034414;28;20209;-69
2022/01/11 03:19:52;;;;;;;21.73;13.37;;;3.30;99.90;;;;;;5034746;28;20189;-69
2022/01/11 03:22:17;;;;;;;18.63;12.23;;;3.40;99.90;;;;;;5034388;28;20264;-69
2022/01/11 03:24:44;;;;;;;19.10;11.63;;;3.30;99.90;;;;;;5033933;28;20783;-69
2022/01/11 03:27:10;;;;;;;19.53;10.77;;;3.20;99.90;;;;;;5034212;28;20215;-69
2022/01/11 03:29:38;;;;;;;15.83;10.63;;;3.10;99.90;;;;;;5034602;28;20252;-69
2022/01/11 03:32:05;;;;;;;14.77;10.37;;;3.10;99.90;;;;;;5034620;28;20162;-69
2022/01/11 03:34:30;;;;;;;14.33;9.90;;;3.10;99.90;;;;;;5033039;28;20532;-69
2022/01/11 03:36:57;;;;;;;15.10;10.10;;;3.10;99.90;;;;;;5034062;28;20224;-69
2022/01/11 03:39:24;;;;;;;15.00;10.10;;;3.10;99.90;;;;;;5033847;28;20158;-69
2022/01/11 03:41:50;;;;;;;15.20;9.87;;;3.10;99.90;;;;;;5034367;28;20268;-68
2022/01/11 03:44:15;;;;;;;16.03;10.50;;;3.20;99.90;;;;;;5034219;28;20654;-68
2022/01/11 03:46:41;;;;;;;13.93;9.97;;;3.30;99.90;;;;;;5034078;28;20193;-69
2022/01/11 03:49:07;;;;;;;16.67;11.00;;;3.30;99.90;;;;;;5034279;28;20173;-68
2022/01/11 03:51:35;;;;;;;16.27;10.00;;;3.30;99.90;;;;;;5033704;28;20280;-70
2022/01/11 03:54:09;;;;;;;15.57;10.20;;;3.30;99.90;;;;;;5033913;28;20534;-69
2022/01/11 03:56:35;;;;;;;16.60;10.40;;;3.30;99.90;;;;;;5033598;28;20304;-69
2022/01/11 03:59:06;;;;;;;15.60;10.17;;;3.30;99.90;;;;;;5033951;28;20622;-70
2022/01/11 04:01:33;;;;;;;15.50;10.20;;;3.20;99.90;;;;;;5034050;28;20170;-69
2022/01/11 04:03:59;;;;;;;14.80;9.27;;;3.20;99.90;;;;;;5033735;28;20228;-69
2022/01/11 04:06:26;;;;;;;15.47;9.90;;;3.30;99.90;;;;;;5033011;28;20177;-69
2022/01/11 04:08:52;;;;;;;13.80;9.30;;;3.20;99.90;;;;;;5033864;28;20241;-70
2022/01/11 04:11:18;;;;;;;17.07;9.97;;;3.30;99.90;;;;;;5033735;28;20174;-69
2022/01/11 04:13:43;;;;;;;13.00;9.40;;;3.20;99.90;;;;;;5033530;28;20231;-70
2022/01/11 04:16:09;;;;;;;16.60;9.13;;;3.20;99.90;;;;;;5033493;28;20177;-68
2022/01/11 04:18:35;;;;;;;14.03;9.53;;;3.20;99.90;;;;;;5033336;28;20178;-69
2022/01/11 04:21:02;;;;;;;16.87;10.13;;;3.00;99.90;;;;;;5032440;28;20629;-69
2022/01/11 04:23:27;;;;;;;14.87;9.53;;;3.00;99.90;;;;;;5033410;28;20185;-69
2022/01/11 04:25:53;;;;;;;15.40;9.40;;;3.00;99.90;;;;;;5033014;28;20212;-69
2022/01/11 04:28:22;;;;;;;15.87;9.40;;;3.00;99.90;;;;;;5033393;28;20222;-69
2022/01/11 04:30:48;;;;;;;14.20;9.43;;;3.00;99.90;;;;;;5033393;28;20252;-69
2022/01/11 04:33:14;;;;;;;14.77;9.90;;;3.10;99.90;;;;;;5033327;28;20264;-68
2022/01/11 04:35:43;;;;;;;17.77;9.87;;;3.10;99.90;;;;;;5032448;28;20170;-68
2022/01/11 04:38:08;;;;;;;15.97;10.03;;;3.10;99.90;;;;;;5032885;28;20215;-69
2022/01/11 04:40:34;;;;;;;16.70;10.27;;;3.10;99.90;;;;;;5033135;28;20748;-68
2022/01/11 04:43:00;;;;;;;17.73;9.90;;;3.10;99.90;;;;;;5032847;28;20184;-68
2022/01/11 04:45:25;;;;;;;15.07;10.03;;;3.10;99.90;;;;;;5033195;28;20176;-69
2022/01/11 04:47:56;;;;;;;18.67;10.17;;;3.10;99.90;;;;;;5032750;28;20228;-68
2022/01/11 04:50:26;;;;;;;15.47;10.20;;;3.20;99.90;;;;;;5032497;28;20208;-69
2022/01/11 04:52:52;;;;;;;18.50;10.73;;;3.20;99.90;;;;;;5032765;28;20207;-69
2022/01/11 04:55:18;;;;;;;16.73;10.60;;;3.20;99.90;;;;;;5032590;28;20173;-69
2022/01/11 04:57:44;;;;;;;15.93;10.37;;;3.20;99.90;;;;;;5031220;28;20664;-68
2022/01/11 05:00:11;;;;;;;18.40;11.27;;;3.20;99.90;;;;;;5032959;28;20202;-69
2022/01/11 05:02:37;;;;;;;21.43;11.10;;;3.20;99.90;;;;;;5032497;28;20180;-69
2022/01/11 05:05:03;;;;;;;18.30;11.57;;;3.30;99.90;;;;;;5032457;28;20181;-69
2022/01/11 05:07:29;;;;;;;18.37;11.10;;;3.30;99.90;;;;;;5032674;28;20174;-69
2022/01/11 05:09:54;;;;;;;18.43;10.97;;;3.30;99.90;;;;;;5035468;28;20172;-69
2022/01/11 05:12:20;;;;;;;18.13;11.33;;;3.30;99.90;;;;;;5034977;28;20648;-68
2022/01/11 05:14:46;;;;;;;21.10;12.70;;;3.30;99.90;;;;;;5036732;28;20241;-69
2022/01/11 05:17:11;;;;;;;21.80;11.67;;;3.30;99.90;;;;;;5036201;28;20205;-69
2022/01/11 05:19:37;;;;;;;20.07;12.10;;;3.20;99.90;;;;;;5036431;28;20180;-68
2022/01/11 05:22:03;;;;;;;22.87;12.70;;;3.10;99.90;;;;;;5036352;28;20177;-68
2022/01/11 05:24:28;;;;;;;21.67;12.00;;;3.20;99.90;;;;;;5036132;28;20170;-69
2022/01/11 05:26:54;;;;;;;22.93;12.53;;;3.20;99.90;;;;;;5036352;28;20652;-69
2022/01/11 05:29:20;;;;;;;21.93;11.80;;;3.20;99.90;;;;;;5036862;28;20534;-68
2022/01/11 05:31:46;;;;;;;22.73;11.73;;;3.20;99.90;;;;;;5036071;28;20185;-69
2022/01/11 05:34:11;;;;;;;22.70;12.13;;;3.20;99.90;;;;;;5035658;28;20177;-69
2022/01/11 05:36:37;;;;;;;22.70;11.60;;;3.20;99.90;;;;;;5035994;28;20255;-70
2022/01/11 05:39:03;;;;;;;21.37;13.07;;;3.20;99.90;;;;;;5036337;28;20598;-69
2022/01/11 05:41:30;;;;;;;21.10;12.00;;;3.20;99.90;;;;;;5035937;28;20208;-69
2022/01/11 05:43:56;;;;;;;19.33;11.13;;;3.30;99.90;;;;;;5036302;28;20610;-69
2022/01/11 05:46:22;;;;;;;20.73;11.70;;;3.30;99.90;;;;;;5035775;28;20227;-69
2022/01/11 05:48:48;;;;;;;22.73;12.47;;;3.30;99.90;;;;;;5035533;28;20535;-69
2022/01/11 05:51:14;;;;;;;23.53;12.37;;;3.30;99.90;;;;;;5035942;28;20197;-69
2022/01/11 05:53:41;;;;;;;20.47;11.20;;;3.50;99.90;;;;;;5035063;28;20630;-68
2022/01/11 05:56:07;;;;;;;19.40;11.77;;;3.60;99.90;;;;;;5035399;28;20218;-69
2022/01/11 05:58:36;;;;;;;20.67;11.53;;;3.60;99.90;;;;;;5035783;28;20216;-69
2022/01/11 06:01:02;;;;;;;19.50;11.57;;;3.50;99.90;;;;;;5035612;28;20210;-69
2022/01/11 06:03:28;;;;;;;22.20;11.77;;;3.50;99.90;;;;;;5035020;28;20637;-71
2022/01/11 06:05:54;;;;;;;18.30;11.73;;;3.50;99.90;;;;;;5035923;28;20170;-70
2022/01/11 06:08:20;;;;;;;19.83;11.53;;;3.60;99.90;;;;;;5035542;28;20629;-69
2022/01/11 06:10:46;;;;;;;19.57;11.50;;;3.60;99.90;;;;;;5035254;28;20205;-69
2022/01/11 06:13:12;;;;;;;17.40;10.83;;;3.60;99.90;;;;;;5035086;28;20247;-69
2022/01/11 06:15:38;;;;;;;18.90;11.10;;;3.60;99.90;;;;;;5034668;28;20212;-69
2022/01/11 06:18:05;;;;;;;21.33;11.83;;;3.60;99.90;;;;;;5034599;28;20244;-70
2022/01/11 06:20:31;;;;;;;21.30;11.33;;;3.60;99.90;;;;;;5034928;28;20526;-69
2022/01/11 06:22:57;;;;;;;19.40;10.90;;;3.70;99.90;;;;;;5035125;28;20181;-70
2022/01/11 06:25:23;;;;;;;16.93;11.27;;;3.70;99.90;;;;;;5034614;28;20665;-70
2022/01/11 06:27:50;;;;;;;17.40;10.90;;;3.70;99.90;;;;;;5034549;28;20225;-69
2022/01/11 06:30:17;;;;;;;18.83;11.67;;;3.70;99.90;;;;;;5034429;28;20641;-69
2022/01/11 06:32:44;;;;;;;17.43;9.77;;;3.70;99.90;;;;;;5034270;28;20547;-69
2022/01/11 06:35:11;;;;;;;17.43;10.57;;;3.70;99.90;;;;;;5034479;28;20204;-70
2022/01/11 06:37:37;;;;;;;19.00;10.93;;;3.60;99.90;;;;;;5034289;28;20289;-69
2022/01/11 06:40:04;;;;;;;18.90;10.43;;;3.50;99.90;;;;;;5034626;28;20587;-69
2022/01/11 06:42:31;;;;;;;17.80;10.63;;;3.50;99.90;;;;;;5034231;28;20268;-70
2022/01/11 06:44:57;;;;;;;17.03;10.60;;;3.60;99.90;;;;;;5033363;28;20170;-69
2022/01/11 06:47:23;;;;;;;15.40;10.23;;;3.70;99.90;;;;;;5033650;28;20637;-69
2022/01/11 06:49:48;;;;;;;16.23;10.60;;;3.60;99.90;;;;;;5033985;28;20174;-70
2022/01/11 06:52:14;;;;;;;20.87;11.47;;;3.60;99.90;;;;;;5033988;28;20230;-69
2022/01/11 06:54:41;;;;;;;20.13;11.23;;;3.60;99.90;;;;;;5034181;28;20184;-70
2022/01/11 06:57:07;;;;;;;17.63;10.83;;;3.60;99.90;;;;;;5033530;28;20278;-69
2022/01/11 06:59:36;;;;;;;20.30;11.20;;;3.60;99.90;;;;;;5033284;28;20649;-69
2022/01/11 07:02:05;;;;;;;24.30;11.87;;;3.60;99.90;;;;;;5032863;28;20649;-69
2022/01/11 07:04:31;;;;;;;17.80;10.57;;;3.50;99.90;;;;;;5034132;28;20166;-70
2022/01/11 07:06:57;;;;;;;22.87;12.80;;;3.50;99.90;;;;;;5034357;28;20180;-70
2022/01/11 07:09:23;;;;;;;21.37;11.47;;;3.50;99.90;;;;;;5033451;28;20190;-70
2022/01/11 07:11:48;;;;;;;22.97;12.53;;;3.50;99.90;;;;;;5033508;28;20170;-70
2022/01/11 07:14:14;;;;;;;20.90;11.27;;;3.50;99.90;;;;;;5033544;28;20192;-70
2022/01/11 07:16:41;;;;;;;18.57;11.63;;;3.50;99.90;;;;;;5033117;28;20198;-70
2022/01/11 07:19:07;;;;;;;23.93;12.37;;;3.40;99.90;;;;;;5033777;28;20180;-70
2022/01/11 07:21:35;;;;;;;21.57;11.40;;;3.50;99.90;;;;;;5033537;28;20594;-68
2022/01/11 07:24:02;;;;;;;19.90;11.60;;;3.60;99.90;;;;;;5032098;28;20240;-70
2022/01/11 07:26:27;;;;;;;24.77;12.10;;;3.60;99.90;;;;;;5031938;28;20727;-69
2022/01/11 07:28:53;;;;;;;22.90;11.93;;;3.60;99.90;;;;;;5032922;28;20178;-69
2022/01/11 07:31:19;;;;;;;20.00;11.73;;;3.70;99.90;;;;;;5032869;28;20205;-69
2022/01/11 07:33:44;;;;;;;26.13;11.20;;;3.70;99.90;;;;;;5033547;28;20185;-70
2022/01/11 07:36:10;;;;;;;19.40;11.77;;;3.80;99.90;;;;;;5032986;28;20212;-69
2022/01/11 07:38:36;;;;;;;18.80;11.43;;;3.90;99.90;;;;;;5032540;28;20688;-69
2022/01/11 07:41:02;;;;;;;22.30;11.97;;;4.00;99.90;;;;;;5032944;28;20276;-69
2022/01/11 07:43:27;;;;;;;19.57;10.80;;;3.90;99.90;;;;;;5032111;28;20174;-70
2022/01/11 07:45:53;;;;;;;21.83;10.90;;;3.80;99.90;;;;;;5032692;28;20192;-69
2022/01/11 07:48:18;;;;;;;20.70;11.43;;;3.80;99.90;;;;;;5033132;28;20176;-69
2022/01/11 07:50:44;;;;;;;18.40;10.87;;;3.80;99.90;;;;;;5031445;28;20200;-69
2022/01/11 07:53:10;;;;;;;19.57;11.40;;;3.90;99.90;;;;;;5032237;28;20690;-70
2022/01/11 07:55:35;;;;;;;21.77;11.73;;;3.80;99.90;;;;;;5032246;28;20233;-69
2022/01/11 07:58:01;;;;;;;22.80;13.07;;;3.90;99.90;;;;;;5033017;28;20236;-69
2022/01/11 08:00:27;;;;;;;19.63;11.60;;;4.00;99.90;;;;;;5032119;28;20178;-70
2022/01/11 08:02:52;;;;;;;19.50;11.87;;;4.10;99.90;;;;;;5040211;28;20192;-68
2022/01/11 08:05:21;;;;;;;23.30;11.73;;;4.10;99.90;;;;;;5036165;28;20170;-71
2022/01/11 08:07:46;;;;;;;20.77;12.20;;;4.10;99.90;;;;;;5051416;28;20621;-70
2022/01/11 08:10:17;;;;;;;19.53;11.07;;;4.10;99.90;;;;;;5035083;28;20764;-70
2022/01/11 08:12:42;;;;;;;19.73;11.60;;;4.20;99.90;;;;;;5039912;28;20185;-69
2022/01/11 08:15:08;;;;;;;25.13;12.00;;;4.30;99.90;;;;;;5037913;28;20263;-70
2022/01/11 08:17:34;;;;;;;22.30;11.70;;;4.40;99.90;;;;;;5043429;28;20680;-70
2022/01/11 08:20:00;;;;;;;19.83;11.57;;;4.50;99.90;;;;;;5043509;28;20185;-70
2022/01/11 08:22:26;;;;;;;21.13;11.57;;;4.50;99.90;;;;;;5036736;28;20178;-70
2022/01/11 08:24:51;;;;;;;19.73;11.30;;;4.60;99.90;;;;;;5043002;28;20274;-70
2022/01/11 08:27:19;;;;;;;25.80;12.70;;;4.60;99.90;;;;;;5048660;28;20279;-69
2022/01/11 08:29:45;;;;;;;20.23;11.63;;;4.60;99.90;;;;;;5034284;28;20189;-69
2022/01/11 08:32:12;;;;;;;21.73;11.77;;;4.60;99.90;;;;;;5033260;28;20219;-69
2022/01/11 08:34:37;;;;;;;21.97;11.67;;;4.60;99.90;;;;;;5032740;28;20201;-70
2022/01/11 08:37:09;;;;;;;21.00;12.20;;;4.60;99.90;;;;;;5038785;28;20657;-69
2022/01/11 08:39:36;;;;;;;20.63;11.50;;;4.70;99.90;;;;;;5036393;28;20189;-70
2022/01/11 08:42:02;;;;;;;17.80;11.60;;;4.70;99.90;;;;;;5040176;28;20185;-69
2022/01/11 08:44:28;;;;;;;22.63;12.00;;;4.70;99.90;;;;;;5036372;28;20251;-68
2022/01/11 08:46:54;;;;;;;19.37;11.53;;;4.70;99.90;;;;;;5033034;28;20240;-70
2022/01/11 08:49:21;;;;;;;17.93;11.07;;;4.80;99.90;;;;;;5031471;28;20174;-69
2022/01/11 08:51:48;;;;;;;17.97;11.30;;;5.20;99.90;;;;;;5028783;28;20317;-70
2022/01/11 08:54:18;;;;;;;21.10;11.80;;;5.90;99.90;;;;;;5045260;28;20181;-71
2022/01/11 08:56:44;;;;;;;17.90;11.00;;;7.10;99.90;;;;;;5039469;28;20680;-69
2022/01/11 08:59:10;;;;;;;17.43;11.30;;;8.20;99.90;;;;;;5042741;28;20324;-70
2022/01/11 09:01:36;;;;;;;16.87;10.90;;;9.00;99.90;;;;;;5033467;28;20182;-68
2022/01/11 09:04:03;;;;;;;23.47;14.37;;;9.00;98.90;;;;;;5031390;28;20681;-70
2022/01/11 09:06:28;;;;;;;42.37;28.67;;;9.50;98.10;;;;;;5045562;28;20187;-68
2022/01/11 09:08:54;;;;;;;46.63;32.70;;;10.10;96.40;;;;;;5032132;28;20182;-69
2022/01/11 09:11:23;;;;;;;18.40;12.13;;;10.60;94.50;;;;;;5037112;28;20332;-68
2022/01/11 09:13:48;;;;;;;37.80;33.43;;;10.50;93.40;;;;;;5032717;28;20188;-68
2022/01/11 09:16:15;;;;;;;18.50;11.97;;;10.20;93.60;;;;;;5037284;28;20186;-68
2022/01/11 09:18:44;;;;;;;23.23;12.20;;;9.80;94.90;;;;;;5031756;28;20196;-69
2022/01/11 09:21:09;;;;;;;21.93;14.33;;;9.40;95.90;;;;;;5044566;28;20473;-68
2022/01/11 09:23:35;;;;;;;17.97;11.13;;;9.20;96.10;;;;;;5032495;28;20193;-68
2022/01/11 09:26:01;;;;;;;22.40;11.53;;;9.30;96.40;;;;;;5033995;28;20218;-68
2022/01/11 09:28:26;;;;;;;18.40;12.23;;;9.30;96.40;;;;;;5039205;28;20276;-68
2022/01/11 09:30:54;;;;;;;22.53;14.67;;;9.30;95.60;;;;;;5042250;28;20189;-70
2022/01/11 09:33:20;;;;;;;17.30;10.77;;;9.10;96.20;;;;;;5045595;28;20177;-69
2022/01/11 09:35:46;;;;;;;17.23;11.43;;;9.60;95.80;;;;;;5039076;28;20622;-70
2022/01/11 09:38:11;;;;;;;15.20;11.07;;;10.00;94.60;;;;;;5038871;28;20221;-69
2022/01/11 09:40:37;;;;;;;16.80;11.07;;;10.90;92.40;;;;;;5035838;28;20219;-70
2022/01/11 09:43:03;;;;;;;17.67;11.23;;;11.30;89.90;;;;;;5035824;28;20181;-69
2022/01/11 09:45:29;;;;;;;22.07;12.63;;;11.60;89.10;;;;;;5031938;28;20222;-69
2022/01/11 09:47:54;;;;;;;14.97;11.27;;;11.90;85.60;;;;;;5044864;28;20185;-70
2022/01/11 09:50:20;;;;;;;16.50;11.27;;;12.60;1.00;;;;;;5030199;28;20201;-71
2022/01/11 09:52:46;;;;;;;18.00;11.17;;;12.50;1.00;;;;;;5028907;28;20574;-71
2022/01/11 09:55:13;;;;;;;14.53;10.43;;;12.50;99.90;;;;;;5047730;28;20583;-72
2022/01/11 09:57:41;;;;;;;16.20;11.00;;;13.00;99.90;;;;;;5050364;28;20217;-71
2022/01/11 10:00:09;;;;;;;14.90;11.60;;;12.80;99.90;;;;;;5053639;28;20173;-70
2022/01/11 10:02:35;;;;;;;15.93;11.53;;;13.30;99.90;;;;;;5040953;28;20181;-71
2022/01/11 10:05:05;;;;;;;15.37;11.03;;;13.70;99.90;;;;;;5033830;28;20182;-72
2022/01/11 10:07:34;;;;;;;11.57;10.00;;;14.30;99.90;;;;;;5039064;28;20625;-70
2022/01/11 10:10:00;;;;;;;15.60;10.33;;;14.30;99.90;;;;;;5035152;28;20181;-70
2022/01/11 10:12:29;;;;;;;14.17;10.70;;;13.70;99.90;;;;;;5038002;28;20591;-70
2022/01/11 10:14:57;;;;;;;15.30;11.20;;;13.20;99.90;;;;;;5054471;28;20660;-71
2022/01/11 10:17:27;;;;;;;15.17;11.23;;;12.80;99.90;;;;;;5035060;28;20240;-69
2022/01/11 10:20:12;;;;;;;16.93;11.60;;;13.30;99.90;;;;;;5039775;28;20565;-69
2022/01/11 10:23:07;;;;;;;14.37;10.63;;;13.80;99.90;;;;;;5038786;28;20181;-70
2022/01/11 10:25:45;;;;;;;15.63;10.60;;;14.00;99.90;;;;;;5040431;28;20236;-72
2022/01/11 10:28:11;;;;;;;14.57;10.23;;;14.40;99.90;;;;;;5046248;28;20644;-69
2022/01/11 10:30:39;;;;;;;17.83;10.85;;;14.80;99.90;;;;;;5034643;28;20181;-71
2022/01/11 10:33:07;;;;;;;13.60;10.10;;;15.00;99.90;;;;;;5041556;28;20177;-71
2022/01/11 10:35:44;;;;;;;16.50;10.13;;;15.10;99.90;;;;;;5036843;28;20207;-71
2022/01/11 10:38:11;;;;;;;13.93;10.63;;;15.30;99.90;;;;;;5037536;28;20372;-69
2022/01/11 10:40:42;;;;;;;12.35;9.95;;;14.80;99.90;;;;;;5034372;28;20200;-68
2022/01/11 10:43:15;;;;;;;13.75;9.88;;;15.00;99.90;;;;;;5037045;28;20186;-72
2022/01/11 10:45:46;;;;;;;16.67;10.17;;;14.80;99.90;;;;;;5037913;28;20710;-71
2022/01/11 10:48:24;;;;;;;14.00;10.50;;;14.70;99.90;;;;;;5036028;28;20546;-70
2022/01/11 10:50:56;;;;;;;14.85;10.25;;;15.20;99.90;;;;;;5046104;28;20205;-71
2022/01/11 10:53:27;;;;;;;17.05;10.55;;;15.70;99.90;;;;;;5033462;28;20198;-72
2022/01/11 10:55:58;;;;;;;13.75;10.30;;;15.80;99.90;;;;;;5043386;28;20234;-69
2022/01/11 10:58:28;;;;;;;12.63;9.15;;;15.60;99.90;;;;;;5039457;28;20760;-70
2022/01/11 11:00:56;;;;;;;15.82;9.57;;;16.10;99.90;;;;;;5042521;28;20178;-71
2022/01/11 11:03:24;;;;;;;23.00;18.30;;;17.00;99.90;;;;;;5047793;28;20267;-71
2022/01/11 11:05:49;;;;;;;12.82;9.48;;;17.50;99.90;;;;;;5037022;28;20721;-71
2022/01/11 11:08:23;;;;;;;14.52;9.68;;;17.80;99.90;;;;;;5045666;28;20272;-71
2022/01/11 11:11:14;;;;;;;16.67;11.20;;;17.40;99.90;;;;;;5045735;28;20293;-69
2022/01/11 11:13:45;;;;;;;10.85;7.72;;;17.00;99.90;;;;;;5043438;28;20676;-71
2022/01/11 11:16:15;;;;;;;22.13;19.85;;;16.20;99.90;;;;;;5035935;28;20232;-69
2022/01/11 11:19:01;;;;;;;15.98;11.40;;;15.10;99.90;;;;;;5036993;28;20226;-70
2022/01/11 11:21:38;;;;;;;13.73;8.03;;;14.60;99.90;;;;;;5038975;28;20186;-70
2022/01/11 11:24:10;;;;;;;10.77;7.73;;;13.90;99.90;;;;;;5034013;28;20644;-69
2022/01/11 11:26:46;;;;;;;10.77;7.00;;;13.80;99.90;;;;;;5035069;28;20573;-69
2022/01/11 11:29:13;;;;;;;10.93;7.10;;;13.80;99.90;;;;;;5039292;28;20675;-70
2022/01/11 11:31:40;;;;;;;11.30;8.47;;;14.20;99.90;;;;;;5035575;28;20186;-70
2022/01/11 11:34:08;;;;;;;9.10;6.13;;;14.70;99.90;;;;;;5043649;28;20186;-71
2022/01/11 11:36:35;;;;;;;13.20;7.53;;;14.40;99.90;;;;;;5036611;28;20185;-70
2022/01/11 11:39:16;;;;;;;9.97;6.50;;;14.00;99.90;;;;;;5047113;28;20197;-69
2022/01/11 11:41:45;;;;;;;10.17;6.10;;;13.30;99.90;;;;;;5048895;28;20184;-69
2022/01/11 11:44:18;;;;;;;6.87;5.43;;;12.90;99.90;;;;;;5036349;28;20181;-69
2022/01/11 11:46:49;;;;;;;10.87;6.20;;;12.60;99.90;;;;;;5036537;28;20204;-69
2022/01/11 11:49:17;;;;;;;8.07;5.97;;;12.30;99.90;;;;;;5034505;28;20178;-67
2022/01/11 11:51:44;;;;;;;14.80;7.00;;;12.30;99.90;;;;;;5036800;28;20200;-68
2022/01/11 11:54:20;;;;;;;8.57;6.23;;;12.20;99.90;;;;;;5043319;28;20178;-68
2022/01/11 11:56:58;;;;;;;12.37;6.40;;;12.20;99.90;;;;;;5046863;28;20192;-67
2022/01/11 11:59:25;;;;;;;8.57;5.70;;;12.00;99.90;;;;;;5047720;28;20244;-68
2022/01/11 12:01:51;;;;;;;10.50;5.50;;;11.80;99.90;;;;;;5035847;28;20213;-68
2022/01/11 12:04:31;;;;;;;11.00;6.23;;;11.20;99.90;;;;;;5034905;28;20178;-69
2022/01/11 12:07:00;;;;;;;9.23;6.27;;;11.10;99.90;;;;;;5052163;28;20165;-67
2022/01/11 12:09:31;;;;;;;9.83;7.20;;;11.20;99.90;;;;;;5052231;28;20173;-68
2022/01/11 12:11:59;;;;;;;9.00;6.77;;;10.70;99.90;;;;;;5052326;28;20177;-68
2022/01/11 12:14:32;;;;;;;13.73;7.57;;;10.50;99.90;;;;;;5052736;28;20173;-69
2022/01/11 12:17:30;;;;;;;10.93;7.03;;;10.70;99.90;;;;;;5050479;28;20684;-68
2022/01/11 12:19:56;;;;;;;11.47;6.70;;;10.70;99.90;;;;;;5051999;28;20173;-67
2022/01/11 12:22:28;;;;;;;15.50;7.30;;;10.80;99.90;;;;;;5052282;28;20173;-67
2022/01/11 12:24:56;;;;;;;12.27;6.93;;;10.80;99.90;;;;;;5052415;28;20243;-69
2022/01/11 12:27:23;;;;;;;11.57;7.67;;;10.40;99.90;;;;;;5052197;28;20177;-68
2022/01/11 12:29:58;;;;;;;14.70;11.10;;;10.20;99.90;;;;;;5052553;28;20220;-68
2022/01/11 12:32:27;;;;;;;12.47;7.97;;;10.30;99.90;;;;;;5052390;28;20259;-68
2022/01/11 12:35:10;;;;;;;10.57;7.47;;;10.30;99.90;;;;;;5051702;28;20169;-67
2022/01/11 12:37:44;;;;;;;10.90;7.07;;;10.50;99.90;;;;;;5030895;28;20221;-67
2022/01/11 12:40:31;;;;;;;16.10;8.60;;;10.50;99.90;;;;;;5036166;28;20183;-68